sensor_id;sensor_type;location;lat;lon;timestamp;P1;durP1;ratioP1;P2;durP2;ratioP2
27543;SDS011;17996;51.056;3.656;2023-04-28T00:00:54;29.48;;;20.33;;
27543;SDS011;17996;51.056;3.656;2023-04-28T00:03:20;27.38;;;20.40;;
27543;SDS011;17996;51.056;3.656;2023-04-28T00:05:46;30.45;;;20.10;;
27543;SDS011;17996;51.056;3.656;2023-04-28T00:08:13;30.83;;;19.52;;
27543;SDS011;17996;51.056;3.656;2023-04-28T00:10:39;33.47;;;20.75;;
27543;SDS011;17996;51.056;3.656;2023-04-28T00:13:05;29.25;;;18.92;;
27543;SDS011;17996;51.056;3.656;2023-04-28T00:15:30;29.77;;;19.80;;
27543;SDS011;17996;51.056;3.656;2023-04-28T00:17:56;31.60;;;19.15;;
27543;SDS011;17996;51.056;3.656;2023-04-28T00:20:22;34.60;;;20.55;;
27543;SDS011;17996;51.056;3.656;2023-04-28T00:22:47;32.75;;;21.10;;
27543;SDS011;17996;51.056;3.656;2023-04-28T00:25:14;32.00;;;19.77;;
27543;SDS011;17996;51.056;3.656;2023-04-28T00:27:40;37.63;;;19.65;;
27543;SDS011;17996;51.056;3.656;2023-04-28T00:30:06;34.78;;;20.98;;
27543;SDS011;17996;51.056;3.656;2023-04-28T00:32:32;33.10;;;21.73;;
27543;SDS011;17996;51.056;3.656;2023-04-28T00:34:57;31.65;;;21.48;;
27543;SDS011;17996;51.056;3.656;2023-04-28T00:37:23;29.25;;;20.10;;
27543;SDS011;17996;51.056;3.656;2023-04-28T00:39:53;33.55;;;21.75;;
27543;SDS011;17996;51.056;3.656;2023-04-28T00:42:22;30.13;;;20.95;;
27543;SDS011;17996;51.056;3.656;2023-04-28T00:44:48;30.75;;;21.05;;
27543;SDS011;17996;51.056;3.656;2023-04-28T00:47:14;37.55;;;22.63;;
27543;SDS011;17996;51.056;3.656;2023-04-28T00:49:42;31.77;;;22.15;;
27543;SDS011;17996;51.056;3.656;2023-04-28T00:52:08;32.63;;;20.33;;
27543;SDS011;17996;51.056;3.656;2023-04-28T00:54:34;34.80;;;22.35;;
27543;SDS011;17996;51.056;3.656;2023-04-28T00:57:00;32.15;;;22.00;;
27543;SDS011;17996;51.056;3.656;2023-04-28T00:59:27;30.98;;;22.52;;
27543;SDS011;17996;51.056;3.656;2023-04-28T01:01:53;33.42;;;22.52;;
27543;SDS011;17996;51.056;3.656;2023-04-28T01:04:20;35.70;;;23.42;;
27543;SDS011;17996;51.056;3.656;2023-04-28T01:06:47;37.80;;;24.63;;
27543;SDS011;17996;51.056;3.656;2023-04-28T01:09:13;39.97;;;25.58;;
27543;SDS011;17996;51.056;3.656;2023-04-28T01:11:39;36.38;;;25.08;;
27543;SDS011;17996;51.056;3.656;2023-04-28T01:14:05;42.80;;;25.65;;
27543;SDS011;17996;51.056;3.656;2023-04-28T01:16:30;42.55;;;25.10;;
27543;SDS011;17996;51.056;3.656;2023-04-28T01:18:57;42.83;;;28.20;;
27543;SDS011;17996;51.056;3.656;2023-04-28T01:21:31;44.17;;;26.98;;
27543;SDS011;17996;51.056;3.656;2023-04-28T01:23:57;47.95;;;30.52;;
27543;SDS011;17996;51.056;3.656;2023-04-28T01:26:23;49.60;;;30.30;;
27543;SDS011;17996;51.056;3.656;2023-04-28T01:28:49;50.95;;;30.27;;
27543;SDS011;17996;51.056;3.656;2023-04-28T01:31:15;46.22;;;30.75;;
27543;SDS011;17996;51.056;3.656;2023-04-28T01:33:41;45.97;;;30.88;;
27543;SDS011;17996;51.056;3.656;2023-04-28T01:36:07;44.10;;;29.75;;
27543;SDS011;17996;51.056;3.656;2023-04-28T01:38:32;46.10;;;32.38;;
27543;SDS011;17996;51.056;3.656;2023-04-28T01:40:58;54.88;;;31.90;;
27543;SDS011;17996;51.056;3.656;2023-04-28T01:43:26;46.78;;;31.95;;
27543;SDS011;17996;51.056;3.656;2023-04-28T01:45:52;52.53;;;33.88;;
27543;SDS011;17996;51.056;3.656;2023-04-28T01:48:18;55.10;;;34.42;;
27543;SDS011;17996;51.056;3.656;2023-04-28T01:50:43;47.55;;;31.92;;
27543;SDS011;17996;51.056;3.656;2023-04-28T01:53:09;49.20;;;32.92;;
27543;SDS011;17996;51.056;3.656;2023-04-28T01:55:36;53.92;;;32.65;;
27543;SDS011;17996;51.056;3.656;2023-04-28T01:58:02;48.28;;;33.45;;
27543;SDS011;17996;51.056;3.656;2023-04-28T02:00:28;49.10;;;33.42;;
27543;SDS011;17996;51.056;3.656;2023-04-28T02:02:54;46.72;;;32.58;;
27543;SDS011;17996;51.056;3.656;2023-04-28T02:05:20;54.58;;;33.95;;
27543;SDS011;17996;51.056;3.656;2023-04-28T02:07:46;48.17;;;33.65;;
27543;SDS011;17996;51.056;3.656;2023-04-28T02:10:11;50.42;;;31.83;;
27543;SDS011;17996;51.056;3.656;2023-04-28T02:12:37;47.72;;;33.15;;
27543;SDS011;17996;51.056;3.656;2023-04-28T02:15:03;49.50;;;32.47;;
27543;SDS011;17996;51.056;3.656;2023-04-28T02:17:29;51.53;;;32.17;;
27543;SDS011;17996;51.056;3.656;2023-04-28T02:19:55;52.45;;;32.25;;
27543;SDS011;17996;51.056;3.656;2023-04-28T02:22:21;43.80;;;30.67;;
27543;SDS011;17996;51.056;3.656;2023-04-28T02:24:47;45.25;;;31.05;;
27543;SDS011;17996;51.056;3.656;2023-04-28T02:27:13;50.35;;;33.60;;
27543;SDS011;17996;51.056;3.656;2023-04-28T02:29:39;53.03;;;33.08;;
27543;SDS011;17996;51.056;3.656;2023-04-28T02:32:06;49.92;;;33.47;;
27543;SDS011;17996;51.056;3.656;2023-04-28T02:34:32;54.85;;;34.10;;
27543;SDS011;17996;51.056;3.656;2023-04-28T02:36:57;50.55;;;32.70;;
27543;SDS011;17996;51.056;3.656;2023-04-28T02:39:23;55.40;;;36.03;;
27543;SDS011;17996;51.056;3.656;2023-04-28T02:41:51;55.22;;;35.30;;
27543;SDS011;17996;51.056;3.656;2023-04-28T02:44:17;52.95;;;34.30;;
27543;SDS011;17996;51.056;3.656;2023-04-28T02:46:44;47.63;;;35.20;;
27543;SDS011;17996;51.056;3.656;2023-04-28T02:49:10;56.72;;;35.47;;
27543;SDS011;17996;51.056;3.656;2023-04-28T02:51:35;56.50;;;35.35;;
27543;SDS011;17996;51.056;3.656;2023-04-28T02:54:01;55.00;;;36.08;;
27543;SDS011;17996;51.056;3.656;2023-04-28T02:56:27;57.28;;;35.83;;
27543;SDS011;17996;51.056;3.656;2023-04-28T02:58:54;47.05;;;35.30;;
27543;SDS011;17996;51.056;3.656;2023-04-28T03:01:19;60.25;;;37.22;;
27543;SDS011;17996;51.056;3.656;2023-04-28T03:03:45;50.35;;;35.10;;
27543;SDS011;17996;51.056;3.656;2023-04-28T03:06:11;54.17;;;34.55;;
27543;SDS011;17996;51.056;3.656;2023-04-28T03:08:36;59.60;;;35.40;;
27543;SDS011;17996;51.056;3.656;2023-04-28T03:11:02;58.55;;;37.92;;
27543;SDS011;17996;51.056;3.656;2023-04-28T03:13:28;55.53;;;37.20;;
27543;SDS011;17996;51.056;3.656;2023-04-28T03:15:54;54.72;;;36.70;;
27543;SDS011;17996;51.056;3.656;2023-04-28T03:18:20;55.85;;;36.20;;
27543;SDS011;17996;51.056;3.656;2023-04-28T03:20:47;56.13;;;37.13;;
27543;SDS011;17996;51.056;3.656;2023-04-28T03:23:13;60.00;;;37.15;;
27543;SDS011;17996;51.056;3.656;2023-04-28T03:25:39;56.60;;;38.53;;
27543;SDS011;17996;51.056;3.656;2023-04-28T03:28:05;59.83;;;37.30;;
27543;SDS011;17996;51.056;3.656;2023-04-28T03:30:31;54.20;;;37.88;;
27543;SDS011;17996;51.056;3.656;2023-04-28T03:32:57;58.40;;;38.40;;
27543;SDS011;17996;51.056;3.656;2023-04-28T03:35:22;54.92;;;38.05;;
27543;SDS011;17996;51.056;3.656;2023-04-28T03:37:48;54.95;;;38.55;;
27543;SDS011;17996;51.056;3.656;2023-04-28T03:40:15;59.88;;;38.00;;
27543;SDS011;17996;51.056;3.656;2023-04-28T03:42:40;63.45;;;39.88;;
27543;SDS011;17996;51.056;3.656;2023-04-28T03:45:06;61.97;;;40.30;;
27543;SDS011;17996;51.056;3.656;2023-04-28T03:47:33;58.90;;;39.75;;
27543;SDS011;17996;51.056;3.656;2023-04-28T03:49:59;61.75;;;40.15;;
27543;SDS011;17996;51.056;3.656;2023-04-28T03:52:24;57.40;;;39.17;;
27543;SDS011;17996;51.056;3.656;2023-04-28T03:54:51;56.75;;;39.58;;
27543;SDS011;17996;51.056;3.656;2023-04-28T03:57:17;56.38;;;40.25;;
27543;SDS011;17996;51.056;3.656;2023-04-28T03:59:43;63.13;;;40.10;;
27543;SDS011;17996;51.056;3.656;2023-04-28T04:02:08;63.15;;;40.15;;
27543;SDS011;17996;51.056;3.656;2023-04-28T04:04:34;59.60;;;40.85;;
27543;SDS011;17996;51.056;3.656;2023-04-28T04:07:01;66.40;;;41.05;;
27543;SDS011;17996;51.056;3.656;2023-04-28T04:09:27;56.70;;;39.72;;
27543;SDS011;17996;51.056;3.656;2023-04-28T04:11:52;66.38;;;41.65;;
27543;SDS011;17996;51.056;3.656;2023-04-28T04:14:18;57.50;;;39.95;;
27543;SDS011;17996;51.056;3.656;2023-04-28T04:16:45;64.72;;;41.67;;
27543;SDS011;17996;51.056;3.656;2023-04-28T04:19:11;62.30;;;41.38;;
27543;SDS011;17996;51.056;3.656;2023-04-28T04:21:37;67.88;;;43.58;;
27543;SDS011;17996;51.056;3.656;2023-04-28T04:24:03;59.90;;;41.53;;
27543;SDS011;17996;51.056;3.656;2023-04-28T04:26:29;61.25;;;43.20;;
27543;SDS011;17996;51.056;3.656;2023-04-28T04:28:55;69.13;;;44.55;;
27543;SDS011;17996;51.056;3.656;2023-04-28T04:31:20;65.60;;;43.45;;
27543;SDS011;17996;51.056;3.656;2023-04-28T04:33:46;67.57;;;42.97;;
27543;SDS011;17996;51.056;3.656;2023-04-28T04:36:12;69.05;;;44.47;;
27543;SDS011;17996;51.056;3.656;2023-04-28T04:38:38;66.85;;;42.85;;
27543;SDS011;17996;51.056;3.656;2023-04-28T04:41:04;66.72;;;43.53;;
27543;SDS011;17996;51.056;3.656;2023-04-28T04:43:30;63.13;;;42.45;;
27543;SDS011;17996;51.056;3.656;2023-04-28T04:45:55;70.43;;;44.42;;
27543;SDS011;17996;51.056;3.656;2023-04-28T04:48:21;73.70;;;45.33;;
27543;SDS011;17996;51.056;3.656;2023-04-28T04:50:47;71.90;;;46.70;;
27543;SDS011;17996;51.056;3.656;2023-04-28T04:53:13;75.78;;;44.65;;
27543;SDS011;17996;51.056;3.656;2023-04-28T04:55:39;69.47;;;45.95;;
27543;SDS011;17996;51.056;3.656;2023-04-28T04:58:05;66.45;;;43.47;;
27543;SDS011;17996;51.056;3.656;2023-04-28T05:00:30;62.83;;;44.13;;
27543;SDS011;17996;51.056;3.656;2023-04-28T05:02:56;65.57;;;42.38;;
27543;SDS011;17996;51.056;3.656;2023-04-28T05:05:22;75.30;;;44.30;;
27543;SDS011;17996;51.056;3.656;2023-04-28T05:07:48;61.50;;;43.03;;
27543;SDS011;17996;51.056;3.656;2023-04-28T05:10:13;61.05;;;41.70;;
27543;SDS011;17996;51.056;3.656;2023-04-28T05:12:39;65.13;;;41.95;;
27543;SDS011;17996;51.056;3.656;2023-04-28T05:15:05;66.43;;;40.30;;
27543;SDS011;17996;51.056;3.656;2023-04-28T05:17:32;56.03;;;40.25;;
27543;SDS011;17996;51.056;3.656;2023-04-28T05:19:58;61.67;;;42.38;;
27543;SDS011;17996;51.056;3.656;2023-04-28T05:22:23;63.67;;;41.90;;
27543;SDS011;17996;51.056;3.656;2023-04-28T05:24:50;67.55;;;42.60;;
27543;SDS011;17996;51.056;3.656;2023-04-28T05:27:17;65.38;;;41.80;;
27543;SDS011;17996;51.056;3.656;2023-04-28T05:29:43;62.47;;;42.92;;
27543;SDS011;17996;51.056;3.656;2023-04-28T05:32:09;60.97;;;41.40;;
27543;SDS011;17996;51.056;3.656;2023-04-28T05:34:35;59.33;;;39.63;;
27543;SDS011;17996;51.056;3.656;2023-04-28T05:37:00;56.17;;;37.72;;
27543;SDS011;17996;51.056;3.656;2023-04-28T05:39:26;57.65;;;38.42;;
27543;SDS011;17996;51.056;3.656;2023-04-28T05:41:52;54.20;;;36.08;;
27543;SDS011;17996;51.056;3.656;2023-04-28T05:44:17;58.88;;;35.95;;
27543;SDS011;17996;51.056;3.656;2023-04-28T05:46:43;54.63;;;34.83;;
27543;SDS011;17996;51.056;3.656;2023-04-28T05:49:09;45.25;;;31.95;;
27543;SDS011;17996;51.056;3.656;2023-04-28T05:51:35;45.50;;;30.98;;
27543;SDS011;17996;51.056;3.656;2023-04-28T05:54:01;41.03;;;29.08;;
27543;SDS011;17996;51.056;3.656;2023-04-28T05:56:27;38.63;;;25.85;;
27543;SDS011;17996;51.056;3.656;2023-04-28T05:58:53;31.15;;;23.92;;
27543;SDS011;17996;51.056;3.656;2023-04-28T06:01:21;33.55;;;22.83;;
27543;SDS011;17996;51.056;3.656;2023-04-28T06:03:47;27.35;;;20.08;;
27543;SDS011;17996;51.056;3.656;2023-04-28T06:06:12;23.08;;;18.48;;
27543;SDS011;17996;51.056;3.656;2023-04-28T06:08:38;35.47;;;16.25;;
27543;SDS011;17996;51.056;3.656;2023-04-28T06:11:05;20.15;;;15.10;;
27543;SDS011;17996;51.056;3.656;2023-04-28T06:13:31;19.45;;;14.40;;
27543;SDS011;17996;51.056;3.656;2023-04-28T06:15:56;18.42;;;14.18;;
27543;SDS011;17996;51.056;3.656;2023-04-28T06:18:22;12.95;;;10.90;;
27543;SDS011;17996;51.056;3.656;2023-04-28T06:20:48;15.00;;;10.48;;
27543;SDS011;17996;51.056;3.656;2023-04-28T06:23:14;15.45;;;10.32;;
27543;SDS011;17996;51.056;3.656;2023-04-28T06:25:40;12.48;;;9.00;;
27543;SDS011;17996;51.056;3.656;2023-04-28T06:28:06;14.43;;;8.63;;
27543;SDS011;17996;51.056;3.656;2023-04-28T06:30:32;11.30;;;8.43;;
27543;SDS011;17996;51.056;3.656;2023-04-28T06:32:59;11.82;;;8.80;;
27543;SDS011;17996;51.056;3.656;2023-04-28T06:35:25;11.27;;;8.85;;
27543;SDS011;17996;51.056;3.656;2023-04-28T06:37:51;11.48;;;8.82;;
27543;SDS011;17996;51.056;3.656;2023-04-28T06:40:16;12.93;;;10.13;;
27543;SDS011;17996;51.056;3.656;2023-04-28T06:42:42;9.60;;;8.65;;
27543;SDS011;17996;51.056;3.656;2023-04-28T06:45:08;11.43;;;9.68;;
27543;SDS011;17996;51.056;3.656;2023-04-28T06:47:34;9.98;;;7.75;;
27543;SDS011;17996;51.056;3.656;2023-04-28T06:50:01;10.32;;;7.22;;
27543;SDS011;17996;51.056;3.656;2023-04-28T06:52:27;8.18;;;7.10;;
27543;SDS011;17996;51.056;3.656;2023-04-28T06:54:54;8.88;;;6.95;;
27543;SDS011;17996;51.056;3.656;2023-04-28T06:57:20;10.00;;;7.47;;
27543;SDS011;17996;51.056;3.656;2023-04-28T06:59:46;9.15;;;6.10;;
27543;SDS011;17996;51.056;3.656;2023-04-28T07:02:11;8.68;;;6.95;;
27543;SDS011;17996;51.056;3.656;2023-04-28T07:04:37;7.47;;;6.65;;
27543;SDS011;17996;51.056;3.656;2023-04-28T07:07:03;9.38;;;6.43;;
27543;SDS011;17996;51.056;3.656;2023-04-28T07:09:33;7.00;;;6.03;;
27543;SDS011;17996;51.056;3.656;2023-04-28T07:11:59;8.25;;;6.53;;
27543;SDS011;17996;51.056;3.656;2023-04-28T07:14:25;6.65;;;5.57;;
27543;SDS011;17996;51.056;3.656;2023-04-28T07:16:50;11.52;;;5.28;;
27543;SDS011;17996;51.056;3.656;2023-04-28T07:19:16;7.18;;;5.15;;
27543;SDS011;17996;51.056;3.656;2023-04-28T07:21:42;6.50;;;5.07;;
27543;SDS011;17996;51.056;3.656;2023-04-28T07:24:08;5.15;;;4.60;;
27543;SDS011;17996;51.056;3.656;2023-04-28T07:26:34;8.52;;;5.10;;
27543;SDS011;17996;51.056;3.656;2023-04-28T07:29:00;6.70;;;4.53;;
27543;SDS011;17996;51.056;3.656;2023-04-28T07:31:26;5.35;;;4.07;;
27543;SDS011;17996;51.056;3.656;2023-04-28T07:33:52;7.28;;;4.38;;
27543;SDS011;17996;51.056;3.656;2023-04-28T07:36:19;6.43;;;4.70;;
27543;SDS011;17996;51.056;3.656;2023-04-28T07:38:45;8.18;;;4.45;;
27543;SDS011;17996;51.056;3.656;2023-04-28T07:41:12;6.18;;;4.30;;
27543;SDS011;17996;51.056;3.656;2023-04-28T07:43:38;4.80;;;3.97;;
27543;SDS011;17996;51.056;3.656;2023-04-28T07:46:05;5.68;;;4.57;;
27543;SDS011;17996;51.056;3.656;2023-04-28T07:48:33;4.25;;;3.63;;
27543;SDS011;17996;51.056;3.656;2023-04-28T07:50:59;5.13;;;3.92;;
27543;SDS011;17996;51.056;3.656;2023-04-28T07:53:25;5.68;;;3.75;;
27543;SDS011;17996;51.056;3.656;2023-04-28T07:55:51;4.13;;;3.67;;
27543;SDS011;17996;51.056;3.656;2023-04-28T07:58:16;5.63;;;3.97;;
27543;SDS011;17996;51.056;3.656;2023-04-28T08:00:42;5.22;;;3.72;;
27543;SDS011;17996;51.056;3.656;2023-04-28T08:03:08;4.40;;;3.90;;
27543;SDS011;17996;51.056;3.656;2023-04-28T08:05:34;6.00;;;4.53;;
27543;SDS011;17996;51.056;3.656;2023-04-28T08:08:00;6.50;;;4.28;;
27543;SDS011;17996;51.056;3.656;2023-04-28T08:10:25;7.65;;;4.55;;
27543;SDS011;17996;51.056;3.656;2023-04-28T08:12:52;9.65;;;5.97;;
27543;SDS011;17996;51.056;3.656;2023-04-28T08:15:17;6.72;;;6.05;;
27543;SDS011;17996;51.056;3.656;2023-04-28T08:17:43;6.45;;;5.82;;
27543;SDS011;17996;51.056;3.656;2023-04-28T08:20:09;7.68;;;6.90;;
27543;SDS011;17996;51.056;3.656;2023-04-28T08:22:35;8.52;;;6.82;;
27543;SDS011;17996;51.056;3.656;2023-04-28T08:25:01;8.07;;;7.30;;
27543;SDS011;17996;51.056;3.656;2023-04-28T08:27:27;10.10;;;7.95;;
27543;SDS011;17996;51.056;3.656;2023-04-28T08:29:53;9.98;;;7.40;;
27543;SDS011;17996;51.056;3.656;2023-04-28T08:32:18;9.25;;;7.22;;
27543;SDS011;17996;51.056;3.656;2023-04-28T08:34:44;10.55;;;7.53;;
27543;SDS011;17996;51.056;3.656;2023-04-28T08:37:10;7.38;;;6.68;;
27543;SDS011;17996;51.056;3.656;2023-04-28T08:39:36;8.13;;;6.63;;
27543;SDS011;17996;51.056;3.656;2023-04-28T08:42:02;9.40;;;7.35;;
27543;SDS011;17996;51.056;3.656;2023-04-28T08:44:32;9.68;;;7.82;;
27543;SDS011;17996;51.056;3.656;2023-04-28T08:47:13;9.52;;;7.13;;
27543;SDS011;17996;51.056;3.656;2023-04-28T08:49:39;11.10;;;6.82;;
27543;SDS011;17996;51.056;3.656;2023-04-28T08:52:09;7.07;;;5.55;;
27543;SDS011;17996;51.056;3.656;2023-04-28T08:54:36;6.50;;;4.85;;
27543;SDS011;17996;51.056;3.656;2023-04-28T08:57:06;11.02;;;4.80;;
27543;SDS011;17996;51.056;3.656;2023-04-28T08:59:44;9.65;;;5.57;;
27543;SDS011;17996;51.056;3.656;2023-04-28T09:02:09;6.35;;;5.07;;
27543;SDS011;17996;51.056;3.656;2023-04-28T09:04:35;7.07;;;4.82;;
27543;SDS011;17996;51.056;3.656;2023-04-28T09:07:01;6.60;;;4.00;;
27543;SDS011;17996;51.056;3.656;2023-04-28T09:09:27;6.55;;;4.80;;
27543;SDS011;17996;51.056;3.656;2023-04-28T09:11:55;6.10;;;3.90;;
27543;SDS011;17996;51.056;3.656;2023-04-28T09:14:25;4.93;;;3.03;;
27543;SDS011;17996;51.056;3.656;2023-04-28T09:16:52;4.85;;;3.17;;
27543;SDS011;17996;51.056;3.656;2023-04-28T09:19:18;3.33;;;2.90;;
27543;SDS011;17996;51.056;3.656;2023-04-28T09:21:45;6.90;;;3.15;;
27543;SDS011;17996;51.056;3.656;2023-04-28T09:24:32;5.57;;;3.60;;
27543;SDS011;17996;51.056;3.656;2023-04-28T09:27:05;7.13;;;4.15;;
27543;SDS011;17996;51.056;3.656;2023-04-28T09:29:34;6.95;;;4.85;;
27543;SDS011;17996;51.056;3.656;2023-04-28T09:32:16;6.95;;;4.88;;
27543;SDS011;17996;51.056;3.656;2023-04-28T09:34:47;7.28;;;5.60;;
27543;SDS011;17996;51.056;3.656;2023-04-28T09:37:27;6.85;;;4.72;;
27543;SDS011;17996;51.056;3.656;2023-04-28T09:39:57;8.73;;;4.30;;
27543;SDS011;17996;51.056;3.656;2023-04-28T09:42:31;7.82;;;4.43;;
27543;SDS011;17996;51.056;3.656;2023-04-28T09:45:02;9.65;;;4.70;;
27543;SDS011;17996;51.056;3.656;2023-04-28T09:47:28;7.88;;;5.05;;
27543;SDS011;17996;51.056;3.656;2023-04-28T09:49:59;9.95;;;4.97;;
27543;SDS011;17996;51.056;3.656;2023-04-28T09:52:26;5.93;;;4.72;;
27543;SDS011;17996;51.056;3.656;2023-04-28T09:54:52;11.35;;;5.00;;
27543;SDS011;17996;51.056;3.656;2023-04-28T09:57:19;9.57;;;4.70;;
27543;SDS011;17996;51.056;3.656;2023-04-28T09:59:46;6.82;;;4.15;;
27543;SDS011;17996;51.056;3.656;2023-04-28T10:02:17;5.57;;;4.80;;
27543;SDS011;17996;51.056;3.656;2023-04-28T10:04:44;5.45;;;4.18;;
27543;SDS011;17996;51.056;3.656;2023-04-28T10:07:13;5.55;;;3.70;;
27543;SDS011;17996;51.056;3.656;2023-04-28T10:09:41;4.55;;;3.33;;
27543;SDS011;17996;51.056;3.656;2023-04-28T10:12:09;4.90;;;3.00;;
27543;SDS011;17996;51.056;3.656;2023-04-28T10:14:35;4.80;;;3.08;;
27543;SDS011;17996;51.056;3.656;2023-04-28T10:17:02;9.50;;;2.85;;
27543;SDS011;17996;51.056;3.656;2023-04-28T10:19:29;4.18;;;2.33;;
27543;SDS011;17996;51.056;3.656;2023-04-28T10:24:45;5.40;;;2.00;;
27543;SDS011;17996;51.056;3.656;2023-04-28T10:27:36;3.20;;;1.90;;
27543;SDS011;17996;51.056;3.656;2023-04-28T10:30:14;3.58;;;2.35;;
27543;SDS011;17996;51.056;3.656;2023-04-28T10:32:41;5.93;;;1.77;;
27543;SDS011;17996;51.056;3.656;2023-04-28T10:40:42;2.03;;;1.63;;
27543;SDS011;17996;51.056;3.656;2023-04-28T10:43:10;2.45;;;1.58;;
27543;SDS011;17996;51.056;3.656;2023-04-28T10:58:46;3.97;;;2.40;;
27543;SDS011;17996;51.056;3.656;2023-04-28T11:03:53;3.35;;;2.33;;
27543;SDS011;17996;51.056;3.656;2023-04-28T11:06:35;3.65;;;2.15;;
27543;SDS011;17996;51.056;3.656;2023-04-28T11:12:24;6.10;;;2.13;;
27543;SDS011;17996;51.056;3.656;2023-04-28T11:19:19;2.55;;;1.90;;
27543;SDS011;17996;51.056;3.656;2023-04-28T11:21:50;3.55;;;1.70;;
27543;SDS011;17996;51.056;3.656;2023-04-28T11:24:17;4.65;;;2.22;;
27543;SDS011;17996;51.056;3.656;2023-04-28T11:26:42;2.30;;;1.80;;
27543;SDS011;17996;51.056;3.656;2023-04-28T11:29:09;2.08;;;1.48;;
27543;SDS011;17996;51.056;3.656;2023-04-28T11:31:35;2.42;;;2.00;;
27543;SDS011;17996;51.056;3.656;2023-04-28T11:34:02;3.47;;;1.77;;
27543;SDS011;17996;51.056;3.656;2023-04-28T11:39:00;4.50;;;2.20;;
27543;SDS011;17996;51.056;3.656;2023-04-28T11:41:32;2.15;;;1.77;;
27543;SDS011;17996;51.056;3.656;2023-04-28T11:49:11;4.72;;;2.55;;
27543;SDS011;17996;51.056;3.656;2023-04-28T11:51:39;2.25;;;2.00;;
27543;SDS011;17996;51.056;3.656;2023-04-28T11:54:07;4.82;;;2.30;;
27543;SDS011;17996;51.056;3.656;2023-04-28T11:56:36;3.85;;;2.30;;
27543;SDS011;17996;51.056;3.656;2023-04-28T12:04:26;4.00;;;1.75;;
27543;SDS011;17996;51.056;3.656;2023-04-28T12:09:42;1.80;;;1.40;;
27543;SDS011;17996;51.056;3.656;2023-04-28T12:12:32;2.30;;;1.42;;
27543;SDS011;17996;51.056;3.656;2023-04-28T12:17:30;1.80;;;1.50;;
27543;SDS011;17996;51.056;3.656;2023-04-28T12:19:58;1.98;;;1.65;;
27543;SDS011;17996;51.056;3.656;2023-04-28T12:22:26;2.28;;;1.80;;
27543;SDS011;17996;51.056;3.656;2023-04-28T12:25:08;2.17;;;1.95;;
27543;SDS011;17996;51.056;3.656;2023-04-28T12:27:35;2.88;;;1.70;;
27543;SDS011;17996;51.056;3.656;2023-04-28T12:32:46;2.83;;;2.15;;
27543;SDS011;17996;51.056;3.656;2023-04-28T12:35:12;4.25;;;2.10;;
27543;SDS011;17996;51.056;3.656;2023-04-28T12:37:38;4.95;;;2.50;;
27543;SDS011;17996;51.056;3.656;2023-04-28T12:40:05;7.70;;;2.80;;
27543;SDS011;17996;51.056;3.656;2023-04-28T12:42:32;3.30;;;2.00;;
27543;SDS011;17996;51.056;3.656;2023-04-28T12:44:59;4.43;;;2.30;;
27543;SDS011;17996;51.056;3.656;2023-04-28T12:47:24;4.32;;;2.72;;
27543;SDS011;17996;51.056;3.656;2023-04-28T12:49:50;5.78;;;2.58;;
27543;SDS011;17996;51.056;3.656;2023-04-28T12:52:20;6.82;;;3.20;;
27543;SDS011;17996;51.056;3.656;2023-04-28T12:54:46;4.00;;;3.13;;
27543;SDS011;17996;51.056;3.656;2023-04-28T12:57:13;7.68;;;3.78;;
27543;SDS011;17996;51.056;3.656;2023-04-28T12:59:43;5.72;;;3.40;;
27543;SDS011;17996;51.056;3.656;2023-04-28T13:02:09;6.13;;;3.78;;
27543;SDS011;17996;51.056;3.656;2023-04-28T13:04:35;4.53;;;3.67;;
27543;SDS011;17996;51.056;3.656;2023-04-28T13:07:00;6.20;;;3.05;;
27543;SDS011;17996;51.056;3.656;2023-04-28T13:09:26;5.13;;;3.80;;
27543;SDS011;17996;51.056;3.656;2023-04-28T13:11:52;5.95;;;3.58;;
27543;SDS011;17996;51.056;3.656;2023-04-28T13:14:19;5.80;;;4.03;;
27543;SDS011;17996;51.056;3.656;2023-04-28T13:16:45;4.82;;;4.32;;
27543;SDS011;17996;51.056;3.656;2023-04-28T13:19:11;5.68;;;4.43;;
27543;SDS011;17996;51.056;3.656;2023-04-28T13:21:41;7.10;;;4.95;;
27543;SDS011;17996;51.056;3.656;2023-04-28T13:24:07;4.82;;;4.05;;
27543;SDS011;17996;51.056;3.656;2023-04-28T13:26:33;4.95;;;4.47;;
27543;SDS011;17996;51.056;3.656;2023-04-28T13:28:59;6.45;;;4.28;;
27543;SDS011;17996;51.056;3.656;2023-04-28T13:31:27;6.45;;;3.72;;
27543;SDS011;17996;51.056;3.656;2023-04-28T13:33:54;4.18;;;3.58;;
27543;SDS011;17996;51.056;3.656;2023-04-28T13:36:20;5.35;;;3.60;;
27543;SDS011;17996;51.056;3.656;2023-04-28T13:38:45;7.35;;;3.88;;
27543;SDS011;17996;51.056;3.656;2023-04-28T13:41:16;5.00;;;3.60;;
27543;SDS011;17996;51.056;3.656;2023-04-28T13:43:42;4.40;;;3.30;;
27543;SDS011;17996;51.056;3.656;2023-04-28T13:46:08;3.47;;;2.53;;
27543;SDS011;17996;51.056;3.656;2023-04-28T13:48:34;3.83;;;2.72;;
27543;SDS011;17996;51.056;3.656;2023-04-28T13:51:03;6.68;;;3.30;;
27543;SDS011;17996;51.056;3.656;2023-04-28T13:55:56;3.53;;;2.53;;
27543;SDS011;17996;51.056;3.656;2023-04-28T13:58:23;2.95;;;2.58;;
27543;SDS011;17996;51.056;3.656;2023-04-28T14:00:50;3.15;;;2.72;;
27543;SDS011;17996;51.056;3.656;2023-04-28T14:03:16;4.28;;;2.08;;
27543;SDS011;17996;51.056;3.656;2023-04-28T14:05:43;2.10;;;1.90;;
27543;SDS011;17996;51.056;3.656;2023-04-28T14:08:09;2.33;;;2.10;;
27543;SDS011;17996;51.056;3.656;2023-04-28T14:10:35;4.45;;;2.50;;
27543;SDS011;17996;51.056;3.656;2023-04-28T14:13:01;4.38;;;2.13;;
27543;SDS011;17996;51.056;3.656;2023-04-28T14:15:27;3.20;;;1.85;;
27543;SDS011;17996;51.056;3.656;2023-04-28T14:17:52;4.10;;;2.03;;
27543;SDS011;17996;51.056;3.656;2023-04-28T14:20:18;3.13;;;2.03;;
27543;SDS011;17996;51.056;3.656;2023-04-28T14:22:44;3.13;;;1.75;;
27543;SDS011;17996;51.056;3.656;2023-04-28T14:25:09;2.63;;;2.03;;
27543;SDS011;17996;51.056;3.656;2023-04-28T14:27:35;3.90;;;1.80;;
27543;SDS011;17996;51.056;3.656;2023-04-28T14:30:01;1.50;;;1.40;;
27543;SDS011;17996;51.056;3.656;2023-04-28T14:32:27;4.13;;;1.45;;
27543;SDS011;17996;51.056;3.656;2023-04-28T14:34:53;4.10;;;1.65;;
27543;SDS011;17996;51.056;3.656;2023-04-28T14:37:19;2.33;;;2.03;;
27543;SDS011;17996;51.056;3.656;2023-04-28T14:39:44;3.55;;;1.80;;
27543;SDS011;17996;51.056;3.656;2023-04-28T14:42:10;2.63;;;1.80;;
27543;SDS011;17996;51.056;3.656;2023-04-28T14:44:36;2.15;;;1.90;;
27543;SDS011;17996;51.056;3.656;2023-04-28T14:47:02;5.55;;;2.05;;
27543;SDS011;17996;51.056;3.656;2023-04-28T14:49:28;4.28;;;2.30;;
27543;SDS011;17996;51.056;3.656;2023-04-28T14:51:54;5.60;;;2.65;;
27543;SDS011;17996;51.056;3.656;2023-04-28T14:54:20;3.00;;;2.42;;
27543;SDS011;17996;51.056;3.656;2023-04-28T14:56:49;4.57;;;2.40;;
27543;SDS011;17996;51.056;3.656;2023-04-28T14:59:15;3.83;;;1.95;;
27543;SDS011;17996;51.056;3.656;2023-04-28T15:01:40;3.58;;;1.95;;
27543;SDS011;17996;51.056;3.656;2023-04-28T15:04:06;2.45;;;1.85;;
27543;SDS011;17996;51.056;3.656;2023-04-28T15:06:34;4.60;;;1.80;;
27543;SDS011;17996;51.056;3.656;2023-04-28T15:09:00;3.90;;;1.80;;
27543;SDS011;17996;51.056;3.656;2023-04-28T15:11:26;2.42;;;1.77;;
27543;SDS011;17996;51.056;3.656;2023-04-28T15:13:52;2.42;;;1.60;;
27543;SDS011;17996;51.056;3.656;2023-04-28T15:16:18;2.88;;;1.60;;
27543;SDS011;17996;51.056;3.656;2023-04-28T15:18:43;3.85;;;1.30;;
27543;SDS011;17996;51.056;3.656;2023-04-28T15:21:10;1.75;;;1.27;;
27543;SDS011;17996;51.056;3.656;2023-04-28T15:23:36;2.30;;;1.23;;
27543;SDS011;17996;51.056;3.656;2023-04-28T15:26:02;5.80;;;1.30;;
27543;SDS011;17996;51.056;3.656;2023-04-28T15:28:29;2.88;;;1.17;;